createdAt,value
2018-09-12T00:00:02.848Z,100933.09
2018-09-12T00:02:36.122Z,100933.27
2018-09-12T00:05:09.462Z,100929.83
2018-09-12T00:07:42.733Z,100931.96
2018-09-12T00:10:16.052Z,100927.22
2018-09-12T00:12:49.355Z,100929.36
2018-09-12T00:15:22.693Z,100928.61
2018-09-12T00:17:56.006Z,100927.70
2018-09-12T00:20:29.319Z,100929.09
2018-09-12T00:23:02.618Z,100919.91
2018-09-12T00:25:35.936Z,100930.30
2018-09-12T00:28:09.233Z,100920.19
2018-09-12T00:30:42.536Z,100920.29
2018-09-12T00:33:15.821Z,100919.44
2018-09-12T00:35:49.124Z,100914.42
2018-09-12T00:38:22.517Z,100912.39
2018-09-12T00:40:55.842Z,100903.79
2018-09-12T00:43:29.139Z,100908.56
2018-09-12T00:46:02.468Z,100908.41
2018-09-12T00:48:35.757Z,100902.76
2018-09-12T00:51:09.077Z,100911.16
2018-09-12T00:53:42.372Z,100901.05
2018-09-12T00:56:15.701Z,100901.27
2018-09-12T00:58:49.052Z,100901.11
2018-09-12T01:01:22.381Z,100897.23
2018-09-12T01:03:55.681Z,100900.80
2018-09-12T01:06:28.997Z,100903.59
2018-09-12T01:09:02.333Z,100901.69
2018-09-12T01:11:35.645Z,100901.63
2018-09-12T01:14:08.970Z,100899.95
2018-09-12T01:16:42.304Z,100901.49
2018-09-12T01:19:15.593Z,100902.98
2018-09-12T01:21:48.905Z,100900.46
2018-09-12T01:24:22.224Z,100904.19
2018-09-12T01:26:55.539Z,100892.68
2018-09-12T01:29:28.857Z,100890.84
2018-09-12T01:32:02.176Z,100893.80
2018-09-12T01:34:35.568Z,100892.14
2018-09-12T01:37:08.882Z,100895.64
2018-09-12T01:39:42.172Z,100893.26
2018-09-12T01:42:15.510Z,100891.31
2018-09-12T01:44:48.826Z,100895.47
2018-09-12T01:47:22.150Z,100901.13
2018-09-12T01:49:55.445Z,100894.27
2018-09-12T01:52:28.789Z,100896.77
2018-09-12T01:55:02.076Z,100895.93
2018-09-12T01:57:35.388Z,100902.79
2018-09-12T02:00:14.072Z,100890.42
2018-09-12T02:02:47.920Z,100887.64
2018-09-12T02:05:21.220Z,100894.13
2018-09-12T02:07:54.540Z,100889.41
2018-09-12T02:10:27.864Z,100892.47
2018-09-12T02:13:01.177Z,100893.41
2018-09-12T02:15:34.470Z,100893.01
2018-09-12T02:18:07.806Z,100893.66
2018-09-12T02:20:41.107Z,100895.06
2018-09-12T02:23:14.430Z,100902.49
2018-09-12T02:25:47.723Z,100900.90
2018-09-12T02:28:21.016Z,100901.63
2018-09-12T02:30:54.318Z,100886.33
2018-09-12T02:33:27.649Z,100890.39
2018-09-12T02:36:06.229Z,100893.09
2018-09-12T02:38:39.567Z,100894.59
2018-09-12T02:41:13.080Z,100889.28
2018-09-12T02:43:46.402Z,100890.87
2018-09-12T02:46:19.779Z,100888.37
2018-09-12T02:48:53.279Z,100880.48
2018-09-12T02:51:26.578Z,100882.16
2018-09-12T02:53:59.904Z,100881.32
2018-09-12T02:56:33.204Z,100884.86
2018-09-12T02:59:06.538Z,100883.77
2018-09-12T03:01:39.864Z,100882.94
2018-09-12T03:04:13.185Z,100880.81
2018-09-12T03:06:46.485Z,100889.61
2018-09-12T03:09:19.793Z,100878.96
2018-09-12T03:11:53.053Z,100881.73
2018-09-12T03:14:26.349Z,100879.31
2018-09-12T03:16:59.653Z,100872.34
2018-09-12T03:19:32.954Z,100872.99
2018-09-12T03:22:06.304Z,100868.73
2018-09-12T03:24:39.658Z,100863.34
2018-09-12T03:27:12.929Z,100861.39
2018-09-12T03:29:46.268Z,100862.41
2018-09-12T03:32:19.552Z,100856.27
2018-09-12T03:34:52.906Z,100856.66
2018-09-12T03:37:26.220Z,100846.05
2018-09-12T03:39:59.509Z,100850.87
2018-09-12T03:42:32.788Z,100848.39
2018-09-12T03:45:06.141Z,100850.15
2018-09-12T03:47:39.425Z,100848.62
2018-09-12T03:50:12.721Z,100842.25
2018-09-12T03:52:46.841Z,100842.61
2018-09-12T03:55:20.138Z,100837.14
2018-09-12T03:57:53.420Z,100839.94
2018-09-12T04:00:26.713Z,100835.27
2018-09-12T04:03:00.014Z,100834.91
2018-09-12T04:05:33.307Z,100835.84
2018-09-12T04:08:06.603Z,100827.58
2018-09-12T04:10:39.993Z,100831.72
2018-09-12T04:13:13.316Z,100827.94
2018-09-12T04:15:46.648Z,100825.05
2018-09-12T04:18:19.967Z,100821.16
2018-09-12T04:20:53.309Z,100819.77
2018-09-12T04:23:26.614Z,100823.75
2018-09-12T04:25:59.979Z,100826.55
2018-09-12T04:28:33.290Z,100813.27
2018-09-12T04:31:06.753Z,100825.89
2018-09-12T04:33:40.090Z,100827.11
2018-09-12T04:36:13.398Z,100833.25
2018-09-12T04:38:46.705Z,100834.17
2018-09-12T04:41:20.021Z,100835.00
2018-09-12T04:43:53.333Z,100837.88
2018-09-12T04:46:26.668Z,100842.91
2018-09-12T04:48:59.993Z,100842.14
2018-09-12T04:51:33.305Z,100846.71
2018-09-12T04:54:06.753Z,100853.86
2018-09-12T04:56:40.056Z,100851.05
2018-09-12T04:59:13.353Z,100850.50
2018-09-12T05:01:46.673Z,100853.75
2018-09-12T05:04:19.977Z,100848.44
2018-09-12T05:06:53.298Z,100858.95
2018-09-12T05:09:26.593Z,100844.65
2018-09-12T05:11:59.905Z,100849.91
2018-09-12T05:14:33.195Z,100850.77
2018-09-12T05:17:06.487Z,100859.01
2018-09-12T05:19:39.769Z,100859.29
2018-09-12T05:22:13.082Z,100861.42
2018-09-12T05:24:46.369Z,100869.22
2018-09-12T05:27:19.684Z,100876.12
2018-09-12T05:29:52.955Z,100879.09
2018-09-12T05:32:26.270Z,100883.07
2018-09-12T05:34:59.592Z,100891.17
2018-09-12T05:37:33.044Z,100895.44
2018-09-12T05:40:06.962Z,100892.95
2018-09-12T05:42:41.194Z,100888.89
2018-09-12T05:45:14.481Z,100893.98
2018-09-12T05:47:47.796Z,100894.09
2018-09-12T05:50:21.082Z,100906.44
2018-09-12T05:52:54.373Z,100905.13
2018-09-12T05:55:27.666Z,100902.21
2018-09-12T05:58:00.968Z,100899.33
2018-09-12T06:00:34.241Z,100893.95
2018-09-12T06:03:07.536Z,100893.00
2018-09-12T06:05:40.841Z,100889.28
2018-09-12T06:08:14.169Z,100893.94
2018-09-12T06:10:47.497Z,100891.41
2018-09-12T06:13:20.800Z,100900.23
2018-09-12T06:15:54.116Z,100898.64
2018-09-12T06:18:27.412Z,100903.55
2018-09-12T06:21:00.737Z,100898.92
2018-09-12T06:23:34.029Z,100899.47
2018-09-12T06:26:07.344Z,100908.47
2018-09-12T06:28:41.293Z,100903.88
2018-09-12T06:31:14.621Z,100897.66
2018-09-12T06:33:47.902Z,100899.80
2018-09-12T06:36:21.230Z,100901.49
2018-09-12T06:38:54.528Z,100896.47
2018-09-12T06:41:27.825Z,100909.81
2018-09-12T06:44:01.111Z,100908.16
2018-09-12T06:46:34.466Z,100909.05
2018-09-12T06:49:08.064Z,100902.77
2018-09-12T06:51:41.371Z,100898.02
2018-09-12T06:54:14.658Z,100902.84
2018-09-12T06:56:47.957Z,100908.96
2018-09-12T06:59:21.232Z,100910.70
2018-09-12T07:01:54.549Z,100910.89
2018-09-12T07:04:27.853Z,100917.11
2018-09-12T07:07:01.161Z,100922.77
2018-09-12T07:09:34.462Z,100929.26
2018-09-12T07:12:07.789Z,100928.30
2018-09-12T07:14:41.061Z,100919.13
2018-09-12T07:17:14.373Z,100922.72
2018-09-12T07:19:47.643Z,100922.42
2018-09-12T07:22:20.948Z,100935.86
2018-09-12T07:24:54.259Z,100938.09
2018-09-12T07:27:27.577Z,100938.80
2018-09-12T07:30:00.872Z,100930.88
2018-09-12T07:32:34.170Z,100931.87
2018-09-12T07:35:07.472Z,100940.76
2018-09-12T07:37:40.787Z,100937.36
2018-09-12T07:40:14.084Z,100950.42
2018-09-12T07:42:47.398Z,100945.03
2018-09-12T07:45:20.682Z,100946.56
2018-09-12T07:47:53.996Z,100956.36
2018-09-12T07:50:27.278Z,100962.33
2018-09-12T07:53:00.593Z,100963.64
2018-09-12T07:55:34.487Z,100947.14
2018-09-12T07:58:07.794Z,100958.66
2018-09-12T08:00:41.132Z,100953.79
2018-09-12T08:03:14.443Z,100959.53
2018-09-12T08:05:47.720Z,100963.64
2018-09-12T08:08:21.040Z,100961.14
2018-09-12T08:10:54.365Z,100971.75
2018-09-12T08:13:27.674Z,100957.66
2018-09-12T08:16:00.970Z,100970.39
2018-09-12T08:18:34.293Z,100965.48
2018-09-12T08:21:07.807Z,100971.59
2018-09-12T08:23:41.235Z,100984.77
2018-09-12T08:26:14.628Z,100993.98
2018-09-12T08:28:47.945Z,100980.81
2018-09-12T08:31:21.289Z,100981.97
2018-09-12T08:33:54.624Z,100988.59
2018-09-12T08:36:28.021Z,100994.15
2018-09-12T08:39:01.298Z,100992.48
2018-09-12T08:41:34.596Z,100993.84
2018-09-12T08:44:08.271Z,100992.63
2018-09-12T08:46:41.578Z,101000.09
2018-09-12T08:49:14.986Z,101013.19
2018-09-12T08:51:48.292Z,101013.64
2018-09-12T08:54:21.609Z,101013.27
2018-09-12T08:56:55.093Z,101021.56
2018-09-12T08:59:28.314Z,101023.31
2018-09-12T09:02:01.620Z,101011.35
2018-09-12T09:04:34.956Z,101013.05
2018-09-12T09:07:08.290Z,101024.02
2018-09-12T09:09:41.618Z,101033.59
2018-09-12T09:12:14.925Z,101032.99
2018-09-12T09:14:48.230Z,101031.84
2018-09-12T09:17:21.603Z,101031.52
2018-09-12T09:19:54.877Z,101046.73
2018-09-12T09:22:28.172Z,101023.35
2018-09-12T09:25:01.464Z,101047.89
2018-09-12T09:27:34.771Z,101049.09
2018-09-12T09:30:08.537Z,101065.55
2018-09-12T09:32:42.023Z,101056.54
2018-09-12T09:35:15.315Z,101064.39
2018-09-12T09:37:48.553Z,101072.75
2018-09-12T09:40:21.861Z,101069.55
2018-09-12T09:42:55.230Z,101068.77
2018-09-12T09:45:28.535Z,101072.88
2018-09-12T09:48:01.862Z,101074.08
2018-09-12T09:50:35.069Z,101080.94
2018-09-12T09:53:08.397Z,101081.99
2018-09-12T09:55:41.692Z,101078.89
2018-09-12T09:58:14.973Z,101084.45
2018-09-12T10:00:53.560Z,101082.23
2018-09-12T10:03:32.118Z,101081.70
2018-09-12T10:06:11.063Z,101080.78
2018-09-12T10:08:49.695Z,101082.99
2018-09-12T10:11:23.208Z,101082.45
2018-09-12T10:13:56.572Z,101082.53
2018-09-12T10:16:29.907Z,101083.97
2018-09-12T10:19:03.192Z,101090.53
2018-09-12T10:21:36.532Z,101090.59
2018-09-12T10:24:09.886Z,101087.71
2018-09-12T10:26:43.236Z,101092.94
2018-09-12T10:29:16.636Z,101091.64
2018-09-12T10:31:49.965Z,101093.16
2018-09-12T10:34:23.390Z,101095.37
2018-09-12T10:36:56.714Z,101088.90
2018-09-12T10:39:30.037Z,101083.64
2018-09-12T10:42:03.337Z,101087.39
2018-09-12T10:44:36.664Z,101083.42
2018-09-12T10:47:09.992Z,101091.03
2018-09-12T10:49:43.317Z,101094.80
2018-09-12T10:52:16.616Z,101090.73
2018-09-12T10:54:49.929Z,101089.76
2018-09-12T10:57:23.243Z,101097.14
2018-09-12T10:59:56.555Z,101093.31
2018-09-12T11:02:29.846Z,101093.64
2018-09-12T11:05:03.180Z,101100.48
2018-09-12T11:07:36.472Z,101104.31
2018-09-12T11:10:10.757Z,101104.47
2018-09-12T11:12:44.269Z,101104.66
2018-09-12T11:15:17.630Z,101102.69
2018-09-12T11:17:50.920Z,101098.76
2018-09-12T11:20:24.245Z,101106.11
2018-09-12T11:22:57.557Z,101103.15
2018-09-12T11:25:30.876Z,101108.75
2018-09-12T11:28:04.194Z,101115.32
2018-09-12T11:30:37.525Z,101114.95
2018-09-12T11:33:10.849Z,101122.71
2018-09-12T11:35:44.177Z,101115.78
2018-09-12T11:38:17.584Z,101116.16
2018-09-12T11:40:50.909Z,101115.32
2018-09-12T11:43:24.212Z,101116.94
2018-09-12T11:45:57.532Z,101106.72
2018-09-12T11:48:31.138Z,101118.06
2018-09-12T11:51:04.512Z,101119.22
2018-09-12T11:53:37.826Z,101115.94
2018-09-12T11:56:11.270Z,101121.06
2018-09-12T11:58:44.613Z,101134.00
2018-09-12T12:01:17.921Z,101130.58
2018-09-12T12:03:51.217Z,101135.20
2018-09-12T12:06:24.536Z,101144.35
2018-09-12T12:08:57.825Z,101145.46
2018-09-12T12:11:31.145Z,101143.14
2018-09-12T12:14:04.413Z,101137.48
2018-09-12T12:16:37.724Z,101138.03
2018-09-12T12:19:11.041Z,101138.03
2018-09-12T12:21:44.352Z,101147.22
2018-09-12T12:24:17.664Z,101149.86
2018-09-12T12:26:50.974Z,101154.39
2018-09-12T12:29:24.261Z,101163.90
2018-09-12T12:31:57.562Z,101176.88
2018-09-12T12:34:31.029Z,101164.91
2018-09-12T12:37:04.321Z,101171.80
2018-09-12T12:39:37.664Z,101173.08
2018-09-12T12:42:11.072Z,101174.18
2018-09-12T12:44:44.398Z,101180.73
2018-09-12T12:47:17.693Z,101189.91
2018-09-12T12:49:50.970Z,101183.07
2018-09-12T12:52:24.281Z,101179.56
2018-09-12T12:54:57.575Z,101178.89
2018-09-12T12:57:30.898Z,101178.84
2018-09-12T13:00:04.224Z,101173.59
2018-09-12T13:02:37.520Z,101172.87
2018-09-12T13:05:10.818Z,101173.20
2018-09-12T13:07:44.131Z,101173.94
2018-09-12T13:10:17.440Z,101180.83
2018-09-12T13:12:50.752Z,101172.50
2018-09-12T13:15:24.035Z,101171.86
2018-09-12T13:17:57.362Z,101169.66
2018-09-12T13:20:30.649Z,101168.17
2018-09-12T13:23:03.941Z,101173.64
2018-09-12T13:25:37.241Z,101175.77
2018-09-12T13:28:10.938Z,101180.44
2018-09-12T13:30:44.233Z,101182.57
2018-09-12T13:33:17.540Z,101192.09
2018-09-12T13:35:50.828Z,101189.87
2018-09-12T13:38:24.180Z,101194.30
2018-09-12T13:40:57.497Z,101204.25
2018-09-12T13:43:30.791Z,101198.70
2018-09-12T13:46:04.076Z,101194.30
2018-09-12T13:48:37.383Z,101187.00
2018-09-12T13:51:11.263Z,101186.35
2018-09-12T13:53:44.580Z,101189.41
2018-09-12T13:56:18.174Z,101194.34
2018-09-12T13:58:51.561Z,101193.56
2018-09-12T14:01:24.851Z,101194.20
2018-09-12T14:03:58.177Z,101194.95
2018-09-12T14:06:31.478Z,101194.20
2018-09-12T14:09:07.628Z,101197.03
2018-09-12T14:11:41.056Z,101199.72
2018-09-12T14:14:14.392Z,101199.04
2018-09-12T14:16:47.678Z,101206.67
2018-09-12T14:19:20.985Z,101208.80
2018-09-12T14:21:54.291Z,101208.42
2018-09-12T14:24:29.164Z,101210.50
2018-09-12T14:27:02.988Z,101211.34
2018-09-12T14:29:36.321Z,101208.98
2018-09-12T14:32:09.641Z,101215.97
2018-09-12T14:34:42.949Z,101206.53
2018-09-12T14:37:16.581Z,101209.13
2018-09-12T14:39:49.872Z,101206.02
2018-09-12T14:42:23.240Z,101204.03
2018-09-12T14:44:56.625Z,101194.74
2018-09-12T14:47:29.908Z,101197.28
2018-09-12T14:50:03.220Z,101202.07
2018-09-12T14:52:36.525Z,101207.22
2018-09-12T14:55:10.357Z,101206.05
2018-09-12T14:57:43.898Z,101199.48
2018-09-12T15:00:22.179Z,101192.63
2018-09-12T15:02:56.493Z,101200.40
2018-09-12T15:05:29.828Z,101194.09
2018-09-12T15:08:03.136Z,101203.97
2018-09-12T15:10:36.614Z,101208.34
2018-09-12T15:13:09.939Z,101210.84
2018-09-12T15:15:43.916Z,101216.77
2018-09-12T15:18:17.277Z,101210.73
2018-09-12T15:20:50.928Z,101212.26
2018-09-12T15:23:24.248Z,101208.65
2018-09-12T15:25:57.556Z,101207.25
2018-09-12T15:28:30.877Z,101214.78
2018-09-12T15:31:04.187Z,101225.56
2018-09-12T15:33:37.529Z,101219.98
2018-09-12T15:36:10.953Z,101219.75
2018-09-12T15:38:44.325Z,101227.23
2018-09-12T15:41:17.693Z,101230.48
2018-09-12T15:43:50.986Z,101235.00
2018-09-12T15:46:24.372Z,101235.11
2018-09-12T15:48:57.739Z,101240.29
2018-09-12T15:51:31.052Z,101231.91
2018-09-12T15:54:04.405Z,101232.16
2018-09-12T15:56:37.737Z,101231.09
2018-09-12T15:59:11.065Z,101237.77
2018-09-12T16:01:44.417Z,101236.14
2018-09-12T16:04:17.763Z,101233.05
2018-09-12T16:06:51.068Z,101229.67
2018-09-12T16:09:24.393Z,101231.42
2018-09-12T16:11:58.525Z,101232.94
2018-09-12T16:14:32.177Z,101238.00
2018-09-12T16:17:05.469Z,101242.78
2018-09-12T16:19:38.797Z,101250.59
2018-09-12T16:22:12.113Z,101250.63
2018-09-12T16:24:45.445Z,101256.59
2018-09-12T16:27:18.754Z,101258.08
2018-09-12T16:29:52.149Z,101268.30
2018-09-12T16:32:25.555Z,101266.87
2018-09-12T16:34:59.204Z,101270.45
2018-09-12T16:37:32.488Z,101266.05
2018-09-12T16:40:06.519Z,101274.05
2018-09-12T16:42:40.410Z,101267.41
2018-09-12T16:45:14.935Z,101270.45
2018-09-12T16:47:48.244Z,101273.08
2018-09-12T16:50:22.030Z,101266.61
2018-09-12T16:52:55.353Z,101268.36
2018-09-12T16:55:28.702Z,101266.16
2018-09-12T16:58:02.045Z,101257.64
2018-09-12T17:00:35.405Z,101262.85
2018-09-12T17:03:08.713Z,101267.27
2018-09-12T17:05:42.773Z,101267.37
2018-09-12T17:08:16.053Z,101276.88
2018-09-12T17:10:49.406Z,101269.70
2018-09-12T17:13:22.711Z,101277.56
2018-09-12T17:15:56.033Z,101282.78
2018-09-12T17:18:29.355Z,101282.39
2018-09-12T17:21:02.740Z,101287.68
2018-09-12T17:23:36.057Z,101287.80
2018-09-12T17:26:09.373Z,101289.61
2018-09-12T17:28:42.687Z,101289.70
2018-09-12T17:31:16.002Z,101290.65
2018-09-12T17:33:49.441Z,101295.47
2018-09-12T17:36:27.331Z,101296.38
2018-09-12T17:39:00.694Z,101296.91
2018-09-12T17:41:34.330Z,101294.33
2018-09-12T17:44:07.694Z,101296.56
2018-09-12T17:46:41.025Z,101297.89
2018-09-12T17:49:14.329Z,101298.80
2018-09-12T17:51:47.686Z,101308.30
2018-09-12T17:54:20.991Z,101313.92
2018-09-12T17:56:54.344Z,101308.86
2018-09-12T17:59:27.644Z,101314.52
2018-09-12T18:02:01.516Z,101313.75
2018-09-12T18:04:34.854Z,101314.25
2018-09-12T18:07:08.180Z,101319.88
2018-09-12T18:09:41.561Z,101329.36
2018-09-12T18:12:14.886Z,101342.20
2018-09-12T18:14:48.341Z,101336.59
2018-09-12T18:17:21.669Z,101328.45
2018-09-12T18:19:54.964Z,101339.23
2018-09-12T18:22:28.285Z,101333.23
2018-09-12T18:25:01.589Z,101335.02
2018-09-12T18:27:34.926Z,101331.14
2018-09-12T18:30:08.556Z,101328.63
2018-09-12T18:32:41.930Z,101329.92
2018-09-12T18:35:15.244Z,101326.09
2018-09-12T18:37:48.560Z,101323.12
2018-09-12T18:40:21.866Z,101320.16
2018-09-12T18:42:55.239Z,101324.03
2018-09-12T18:45:28.530Z,101321.91
2018-09-12T18:48:01.865Z,101325.32
2018-09-12T18:50:35.217Z,101323.23
2018-09-12T18:53:08.554Z,101323.30
2018-09-12T18:55:41.881Z,101318.59
2018-09-12T18:58:15.234Z,101327.17
2018-09-12T19:00:48.536Z,101334.85
2018-09-12T19:03:21.868Z,101341.30
2018-09-12T19:05:55.176Z,101334.92
2018-09-12T19:08:28.486Z,101338.83
2018-09-12T19:11:01.792Z,101345.35
2018-09-12T19:13:35.106Z,101333.77
2018-09-12T19:16:08.433Z,101336.36
2018-09-12T19:18:41.786Z,101349.27
2018-09-12T19:21:15.102Z,101351.84
2018-09-12T19:23:48.433Z,101349.27
2018-09-12T19:26:21.733Z,101346.75
2018-09-12T19:28:55.104Z,101347.20
2018-09-12T19:31:28.401Z,101345.91
2018-09-12T19:34:02.186Z,101334.40
2018-09-12T19:36:35.461Z,101339.63
2018-09-12T19:39:09.487Z,101341.87
2018-09-12T19:41:43.003Z,101348.32
2018-09-12T19:44:16.460Z,101346.64
2018-09-12T19:46:50.185Z,101351.91
2018-09-12T19:49:23.476Z,101355.78
2018-09-12T19:51:56.938Z,101358.37
2018-09-12T19:54:30.628Z,101351.49
2018-09-12T19:57:04.382Z,101352.85
2018-09-12T19:59:37.680Z,101339.56
2018-09-12T20:02:11.317Z,101342.14
2018-09-12T20:04:44.656Z,101337.47
2018-09-12T20:07:18.096Z,101344.83
2018-09-12T20:09:52.088Z,101359.06
2018-09-12T20:12:25.443Z,101359.19
2018-09-12T20:14:58.744Z,101353.61
2018-09-12T20:17:32.054Z,101343.81
2018-09-12T20:20:05.396Z,101341.72
2018-09-12T20:22:38.752Z,101344.75
2018-09-12T20:25:12.165Z,101330.20
2018-09-12T20:27:45.468Z,101336.66
2018-09-12T20:30:19.137Z,101344.78
2018-09-12T20:32:52.429Z,101355.11
2018-09-12T20:35:25.713Z,101357.30
2018-09-12T20:37:59.053Z,101353.44
2018-09-12T20:40:32.333Z,101359.88
2018-09-12T20:43:05.624Z,101360.79
2018-09-12T20:45:39.038Z,101361.73
2018-09-12T20:48:12.405Z,101363.53
2018-09-12T20:50:45.739Z,101358.38
2018-09-12T20:53:19.044Z,101358.02
2018-09-12T20:55:52.350Z,101363.22
2018-09-12T20:58:26.501Z,101358.48
2018-09-12T21:00:59.844Z,101365.41
2018-09-12T21:03:33.149Z,101363.77
2018-09-12T21:06:06.425Z,101364.67
2018-09-12T21:08:39.869Z,101358.22
2018-09-12T21:11:13.173Z,101353.45
2018-09-12T21:13:46.480Z,101348.42
2018-09-12T21:16:19.772Z,101345.84
2018-09-12T21:18:53.108Z,101357.45
2018-09-12T21:21:26.432Z,101365.22
2018-09-12T21:23:59.728Z,101364.88
2018-09-12T21:26:33.020Z,101369.61
2018-09-12T21:29:06.316Z,101364.00
2018-09-12T21:31:39.729Z,101367.03
2018-09-12T21:34:13.038Z,101373.52
2018-09-12T21:36:46.320Z,101376.19
2018-09-12T21:39:19.678Z,101378.38
2018-09-12T21:41:52.990Z,101384.44
2018-09-12T21:44:26.282Z,101381.41
2018-09-12T21:46:59.568Z,101376.25
2018-09-12T21:49:32.863Z,101367.73
2018-09-12T21:52:06.266Z,101368.19
2018-09-12T21:54:39.565Z,101377.31
2018-09-12T21:57:12.873Z,101379.92
2018-09-12T21:59:46.177Z,101378.70
2018-09-12T22:02:19.470Z,101377.02
2018-09-12T22:04:52.878Z,101377.05
2018-09-12T22:07:26.169Z,101367.67
2018-09-12T22:09:59.512Z,101365.09
2018-09-12T22:12:32.821Z,101366.93
2018-09-12T22:15:06.120Z,101381.63
2018-09-12T22:17:39.432Z,101378.66
2018-09-12T22:20:12.733Z,101380.34
2018-09-12T22:22:46.025Z,101375.27
2018-09-12T22:25:19.340Z,101377.05
2018-09-12T22:27:52.729Z,101371.95
2018-09-12T22:30:26.026Z,101359.06
2018-09-12T22:32:59.410Z,101361.19
2018-09-12T22:35:32.705Z,101360.73
2018-09-12T22:38:06.158Z,101359.51
2018-09-12T22:40:39.466Z,101367.73
2018-09-12T22:43:12.748Z,101374.69
2018-09-12T22:45:46.040Z,101374.27
2018-09-12T22:48:19.317Z,101374.78
2018-09-12T22:50:52.646Z,101377.36
2018-09-12T22:53:25.937Z,101369.63
2018-09-12T22:55:59.665Z,101364.02
2018-09-12T22:58:32.968Z,101373.97
2018-09-12T23:01:06.285Z,101379.19
2018-09-12T23:03:39.636Z,101380.56
2018-09-12T23:06:12.957Z,101375.41
2018-09-12T23:08:46.274Z,101384.44
2018-09-12T23:11:19.662Z,101386.71
2018-09-12T23:13:53.032Z,101382.13
2018-09-12T23:16:26.344Z,101377.88
2018-09-12T23:18:59.641Z,101385.55
2018-09-12T23:21:33.004Z,101382.13
2018-09-12T23:24:06.345Z,101383.86
2018-09-12T23:26:39.697Z,101380.84
2018-09-12T23:29:13.052Z,101374.39
2018-09-12T23:31:46.376Z,101377.42
2018-09-12T23:34:19.669Z,101378.71
2018-09-12T23:36:53.040Z,101377.42
2018-09-12T23:39:26.347Z,101383.03
2018-09-12T23:41:59.785Z,101388.19
2018-09-12T23:44:33.078Z,101376.67
2018-09-12T23:47:06.393Z,101373.26
2018-09-12T23:49:40.469Z,101372.87
2018-09-12T23:52:13.793Z,101358.25
2018-09-12T23:54:47.177Z,101360.40
2018-09-12T23:57:20.489Z,101369.87
2018-09-12T23:59:53.777Z,101360.94
